createdAt,value
2023-04-16T00:04:54.293Z,99498.47
2023-04-16T00:09:57.324Z,99495.34
2023-04-16T00:15:00.578Z,99502.75
2023-04-16T00:20:05.747Z,99499.31
2023-04-16T00:25:09.397Z,99511.00
2023-04-16T00:30:12.823Z,99505.59
2023-04-16T00:35:17.413Z,99509.28
2023-04-16T00:40:20.493Z,99499.72
2023-04-16T00:45:23.554Z,99515.25
2023-04-16T00:50:28.000Z,99510.56
2023-04-16T00:55:31.163Z,99520.81
2023-04-16T01:00:34.609Z,99519.53
2023-04-16T01:05:39.498Z,99526.66
2023-04-16T01:10:42.707Z,99528.50
2023-04-16T01:15:45.853Z,99513.13
2023-04-16T01:20:50.833Z,99517.81
2023-04-16T01:25:53.983Z,99514.13
2023-04-16T01:30:57.200Z,99525.22
2023-04-16T01:36:01.695Z,99532.19
2023-04-16T01:41:05.128Z,99536.88
2023-04-16T01:46:15.182Z,99536.88
2023-04-16T01:51:19.638Z,99540.31
2023-04-16T01:56:22.736Z,99546.84
2023-04-16T02:01:25.923Z,99545.72
2023-04-16T02:06:31.541Z,99533.78
2023-04-16T02:11:34.588Z,99537.47
2023-04-16T02:16:37.817Z,99543.31
2023-04-16T02:21:42.666Z,99547.44
2023-04-16T02:26:46.351Z,99545.72
2023-04-16T02:31:50.207Z,99537.47
2023-04-16T02:36:55.369Z,99549.00
2023-04-16T02:41:59.727Z,99552.16
2023-04-16T02:47:03.156Z,99548.44
2023-04-16T02:52:07.721Z,99538.88
2023-04-16T02:57:11.092Z,99548.28
2023-04-16T03:02:14.454Z,99554.84
2023-04-16T03:07:18.861Z,99545.13
2023-04-16T03:12:21.924Z,99548.56
2023-04-16T03:17:25.277Z,99549.16
2023-04-16T03:22:29.670Z,99545.13
2023-04-16T03:27:33.185Z,99543.59
2023-04-16T03:32:36.216Z,99543.88
2023-04-16T03:37:40.723Z,99550.09
2023-04-16T03:42:43.754Z,99549.66
2023-04-16T03:47:48.576Z,99545.81
2023-04-16T03:52:53.043Z,99537.97
2023-04-16T03:57:56.192Z,99559.59
2023-04-16T04:02:59.744Z,99556.50
2023-04-16T04:08:04.758Z,99564.44
2023-04-16T04:13:08.567Z,99555.50
2023-04-16T04:18:11.988Z,99570.16
2023-04-16T04:23:16.478Z,99559.34
2023-04-16T04:28:19.849Z,99561.34
2023-04-16T04:33:23.548Z,99568.00
2023-04-16T04:38:28.392Z,99570.94
2023-04-16T04:43:31.754Z,99583.22
2023-04-16T04:48:34.880Z,99591.75
2023-04-16T04:53:39.778Z,99598.31
2023-04-16T04:58:43.620Z,99596.78
2023-04-16T05:03:46.740Z,99603.59
2023-04-16T05:08:51.330Z,99598.63
2023-04-16T05:13:54.365Z,99602.47
2023-04-16T05:18:57.934Z,99601.09
2023-04-16T05:24:02.337Z,99620.59
2023-04-16T05:29:05.423Z,99618.59
2023-04-16T05:34:08.478Z,99633.69
2023-04-16T05:39:12.842Z,99640.94
2023-04-16T05:44:16.270Z,99640.66
2023-04-16T05:49:19.915Z,99639.69
2023-04-16T05:54:24.399Z,99653.94
2023-04-16T05:59:27.561Z,99651.34
2023-04-16T06:04:30.979Z,99652.22
2023-04-16T06:09:37.245Z,99658.59
2023-04-16T06:14:40.393Z,99663.03
2023-04-16T06:19:43.517Z,99656.16
2023-04-16T06:24:48.021Z,99663.03
2023-04-16T06:29:51.314Z,99663.03
2023-04-16T06:34:54.514Z,99664.44
2023-04-16T06:39:59.009Z,99667.59
2023-04-16T06:45:02.566Z,99669.88
2023-04-16T06:50:06.355Z,99679.72
2023-04-16T06:55:11.198Z,99686.03
2023-04-16T07:00:14.619Z,99686.63
2023-04-16T07:05:17.876Z,99685.06
2023-04-16T07:10:22.283Z,99695.31
2023-04-16T07:15:25.580Z,99706.72
2023-04-16T07:20:28.807Z,99694.88
2023-04-16T07:25:33.178Z,99702.25
2023-04-16T07:30:36.272Z,99696.91
2023-04-16T07:35:39.326Z,99700.13
2023-04-16T07:40:43.870Z,99713.59
2023-04-16T07:45:47.095Z,99701.47
2023-04-16T07:50:50.322Z,99709.69
2023-04-16T07:55:54.840Z,99720.63
2023-04-16T08:00:58.062Z,99729.31
2023-04-16T08:06:01.691Z,99727.91
2023-04-16T08:11:06.392Z,99730.47
2023-04-16T08:16:09.605Z,99737.72
2023-04-16T08:21:12.784Z,99743.72
2023-04-16T08:26:17.479Z,99754.03
2023-04-16T08:31:20.706Z,99757.31
2023-04-16T08:36:23.854Z,99762.31
2023-04-16T08:41:31.394Z,99757.53
2023-04-16T08:46:38.427Z,99766.97
2023-04-16T08:51:44.625Z,99767.69
2023-04-16T08:56:49.882Z,99775.03
2023-04-16T09:01:54.008Z,99775.78
2023-04-16T09:06:57.800Z,99775.47
2023-04-16T09:12:02.233Z,99795.28
2023-04-16T09:17:07.478Z,99791.63
2023-04-16T09:22:10.653Z,99794.53
2023-04-16T09:27:15.351Z,99801.94
2023-04-16T09:32:18.582Z,99802.56
2023-04-16T09:37:22.314Z,99802.03
2023-04-16T09:42:29.252Z,99809.75
2023-04-16T09:47:42.978Z,99815.78
2023-04-16T09:52:50.356Z,99819.66
2023-04-16T09:58:01.940Z,99825.91
2023-04-16T10:03:06.635Z,99832.94
2023-04-16T10:08:14.247Z,99832.53
2023-04-16T10:13:19.168Z,99833.44
2023-04-16T10:18:23.069Z,99840.72
2023-04-16T10:23:26.958Z,99847.28
2023-04-16T10:28:31.460Z,99862.00
2023-04-16T10:33:36.758Z,99863.47
2023-04-16T10:38:41.734Z,99863.97
2023-04-16T10:43:47.472Z,99869.25
2023-04-16T10:54:42.335Z,99874.41
2023-04-16T10:59:47.223Z,99871.25
2023-04-16T11:04:50.738Z,99873.97
2023-04-16T11:09:59.577Z,99880.97
2023-04-16T11:15:06.855Z,99878.34
2023-04-16T11:20:18.855Z,99879.53
2023-04-16T11:25:25.825Z,99881.38
2023-04-16T11:30:31.861Z,99887.94
2023-04-16T11:35:35.257Z,99894.34
2023-04-16T11:40:38.263Z,99885.78
2023-04-16T11:45:57.272Z,99887.22
2023-04-16T11:51:00.785Z,99895.75
2023-04-16T11:56:05.099Z,99900.44
2023-04-16T12:01:10.993Z,99894.50
2023-04-16T12:06:14.020Z,99897.38
2023-04-16T12:11:17.032Z,99899.25
2023-04-16T12:16:21.706Z,99903.41
2023-04-16T12:28:04.030Z,99895.13
2023-04-16T12:33:19.530Z,99895.69
2023-04-16T12:38:24.486Z,99897.38
2023-04-16T12:43:28.500Z,99903.69
2023-04-16T12:48:33.837Z,99899.56
2023-04-16T12:53:36.970Z,99909.09
2023-04-16T12:58:40.044Z,99903.59
2023-04-16T13:03:44.655Z,99898.88
2023-04-16T13:08:47.805Z,99897.34
2023-04-16T13:13:50.843Z,99903.16
2023-04-16T13:18:55.438Z,99903.50
2023-04-16T13:23:58.578Z,99901.88
2023-04-16T13:41:10.886Z,99905.50
2023-04-16T13:46:13.926Z,99913.31
2023-04-16T13:51:16.972Z,99915.63
2023-04-16T13:56:21.362Z,99908.47
2023-04-16T14:01:24.608Z,99913.53
2023-04-16T14:06:27.891Z,99919.91
2023-04-16T14:11:32.471Z,99912.97
2023-04-16T14:16:35.725Z,99912.00
2023-04-16T14:21:38.799Z,99919.16
2023-04-16T14:26:43.921Z,99923.44
2023-04-16T14:31:47.068Z,99929.09
2023-04-16T14:36:51.848Z,99918.84
2023-04-16T14:41:56.292Z,99925.75
2023-04-16T14:46:59.552Z,99927.47
2023-04-16T14:52:05.136Z,99926.34
2023-04-16T14:57:09.491Z,99921.44
2023-04-16T15:02:12.711Z,99927.75
2023-04-16T15:07:16.117Z,99931.38
2023-04-16T15:12:20.445Z,99934.34
2023-04-16T15:17:23.874Z,99932.19
2023-04-16T15:22:27.284Z,99931.84
2023-04-16T15:27:31.675Z,99939.97
2023-04-16T15:32:34.760Z,99945.84
2023-04-16T15:37:38.738Z,99936.97
2023-04-16T15:42:44.110Z,99940.66
2023-04-16T15:47:51.076Z,99937.69
2023-04-16T15:52:54.415Z,99940.56
2023-04-16T15:57:58.778Z,99943.22
2023-04-16T16:03:02.116Z,99954.97
2023-04-16T16:08:06.197Z,99954.69
2023-04-16T16:13:13.114Z,99961.72
2023-04-16T16:18:16.485Z,99964.06
2023-04-16T16:23:19.609Z,99956.34
2023-04-16T16:28:25.082Z,99962.59
2023-04-16T16:33:28.934Z,99965.75
2023-04-16T16:38:32.005Z,99968.69
2023-04-16T16:43:37.099Z,99972.66
2023-04-16T16:48:40.114Z,99966.28
2023-04-16T16:53:43.124Z,99968.91
2023-04-16T16:58:47.766Z,99973.25
2023-04-16T17:03:51.100Z,99973.25
2023-04-16T17:08:54.303Z,99982.72
2023-04-16T17:13:58.723Z,99986.59
2023-04-16T17:19:01.762Z,99990.78
2023-04-16T17:24:05.092Z,99985.34
2023-04-16T17:29:09.568Z,99994.25
2023-04-16T17:34:12.760Z,99994.88
2023-04-16T17:39:16.287Z,99994.88
2023-04-16T17:44:20.667Z,100005.09
2023-04-16T17:49:23.736Z,100015.00
2023-04-16T17:54:26.965Z,100021.63
2023-04-16T17:59:31.408Z,100038.53
2023-04-16T18:04:34.740Z,100041.13
2023-04-16T18:09:38.128Z,100043.44
2023-04-16T18:14:44.558Z,100045.91
2023-04-16T18:19:47.669Z,100046.31
2023-04-16T18:24:50.791Z,100060.41
2023-04-16T18:29:55.709Z,100062.28
2023-04-16T18:34:59.174Z,100052.72
2023-04-16T18:40:02.333Z,100058.97
2023-04-16T18:45:12.697Z,100071.97
2023-04-16T18:50:16.987Z,100079.56
2023-04-16T18:55:20.146Z,100083.09
2023-04-16T19:00:24.577Z,100090.81
2023-04-16T19:05:27.823Z,100086.50
2023-04-16T19:10:30.914Z,100088.50
2023-04-16T19:15:35.606Z,100086.63
2023-04-16T19:20:39.527Z,100089.75
2023-04-16T19:25:42.556Z,100092.88
2023-04-16T19:30:47.075Z,100088.75
2023-04-16T19:35:50.095Z,100097.25
2023-04-16T19:40:53.127Z,100101.00
2023-04-16T19:45:57.506Z,100099.84
2023-04-16T19:51:02.808Z,100101.69
2023-04-16T19:56:06.543Z,100095.53
2023-04-16T20:01:11.438Z,100113.19
2023-04-16T20:06:14.477Z,100110.03
2023-04-16T20:11:18.145Z,100110.88
2023-04-16T20:16:23.860Z,100112.88
2023-04-16T20:21:27.778Z,100104.56
2023-04-16T20:26:33.637Z,100110.53
2023-04-16T20:31:38.055Z,100112.78
2023-04-16T20:36:41.298Z,100108.63
2023-04-16T20:41:45.433Z,100100.63
2023-04-16T20:46:50.976Z,100105.34
2023-04-16T20:51:54.394Z,100104.72
2023-04-16T20:56:58.154Z,100099.44
2023-04-16T21:02:02.643Z,100104.72
2023-04-16T21:07:05.798Z,100105.00
2023-04-16T21:12:08.906Z,100099.84
2023-04-16T21:17:13.360Z,100102.34
2023-04-16T21:22:16.689Z,100095.94
2023-04-16T21:27:19.706Z,100106.34
2023-04-16T21:32:24.539Z,100100.47
2023-04-16T21:37:27.937Z,100100.72
2023-04-16T21:42:31.349Z,100099.97
2023-04-16T21:47:35.991Z,100101.25
2023-04-16T21:52:40.748Z,100100.50
2023-04-16T21:57:44.049Z,100096.50
2023-04-16T22:02:48.477Z,100103.75
2023-04-16T22:07:52.096Z,100105.59
2023-04-16T22:12:55.144Z,100104.28
2023-04-16T22:18:00.448Z,100097.25
2023-04-16T22:23:03.525Z,100102.81
2023-04-16T22:28:06.668Z,100095.69
2023-04-16T22:33:11.144Z,100102.06
2023-04-16T22:38:14.269Z,100105.75
2023-04-16T22:43:17.868Z,100101.31
2023-04-16T22:48:22.494Z,100100.63
2023-04-16T22:53:25.500Z,100097.03
2023-04-16T22:58:28.797Z,100091.75
2023-04-16T23:03:33.217Z,100086.59
2023-04-16T23:08:36.260Z,100091.41
2023-04-16T23:13:39.322Z,100090.56
2023-04-16T23:18:43.674Z,100089.69
2023-04-16T23:23:47.000Z,100082.84
2023-04-16T23:28:50.177Z,100089.81
2023-04-16T23:33:54.741Z,100088.25
2023-04-16T23:38:57.758Z,100087.41
2023-04-16T23:44:00.823Z,100080.25
2023-04-16T23:49:05.746Z,100074.84
2023-04-16T23:54:08.804Z,100078.53
2023-04-16T23:59:12.054Z,100083.22
